Time;durP1;ratioP1;P1;durP2;ratioP2;P2;SDS_P1;SDS_P2;PMS_P1;PMS_P2;Temp;Humidity;BMP_temperature;BMP_pressure;BME280_temperature;BME280_humidity;BME280_pressure;Samples;Min_cycle;Max_cycle;Signal;HPM_P1;HPM_P2
2021/12/03 00:01:51;;;;;;;5.77;4.87;;;6.60;79.60;6.50;95483.00;;;;5090233;28;20263;-89
2021/12/03 00:04:22;;;;;;;4.73;4.33;;;6.60;79.40;6.40;95493.00;;;;5076465;28;20191;-89
2021/12/03 00:06:50;;;;;;;4.97;4.23;;;6.60;79.30;6.40;95498.00;;;;5077759;28;20685;-89
2021/12/03 00:09:22;;;;;;;4.33;3.93;;;6.50;79.20;6.30;95501.00;;;;5072734;28;20196;-89
2021/12/03 00:11:49;;;;;;;4.17;3.77;;;6.50;79.10;6.30;95498.00;;;;5081055;28;20245;-90
2021/12/03 00:14:18;;;;;;;4.60;4.13;;;6.40;78.90;6.20;95501.00;;;;5089862;28;20222;-89
2021/12/03 00:16:47;;;;;;;4.30;3.90;;;6.40;78.80;6.20;95501.00;;;;5076446;28;20278;-90
2021/12/03 00:19:14;;;;;;;4.47;4.07;;;6.30;78.70;6.10;95504.00;;;;5073230;28;20219;-89
2021/12/03 00:21:43;;;;;;;4.90;4.37;;;6.30;78.60;6.10;95515.00;;;;5072969;28;20279;-89
2021/12/03 00:24:11;;;;;;;3.93;3.57;;;6.20;78.40;6.00;95515.00;;;;5073519;28;20286;-90
2021/12/03 00:26:39;;;;;;;4.77;4.37;;;6.20;78.60;6.00;95518.00;;;;5090515;28;20211;-90
2021/12/03 00:29:19;;;;;;;5.10;4.57;;;6.10;78.60;5.90;95528.00;;;;5086459;28;20196;-89
2021/12/03 00:31:55;;;;;;;5.13;4.60;;;6.00;78.80;5.90;95541.00;;;;5090060;28;20271;-89
2021/12/03 00:34:44;;;;;;;5.33;4.80;;;6.00;78.90;5.80;95549.00;;;;5095344;28;20191;-89
2021/12/03 00:37:22;;;;;;;5.33;4.83;;;5.90;78.90;5.80;95554.00;;;;5056245;28;20225;-89
2021/12/03 00:40:03;;;;;;;6.90;5.23;;;5.90;79.20;5.70;95554.00;;;;5073772;28;20203;-90
2021/12/03 00:42:35;;;;;;;5.80;4.83;;;5.90;79.20;5.70;95572.00;;;;5075761;28;20203;-90
2021/12/03 00:45:15;;;;;;;6.07;5.07;;;5.80;79.10;5.60;95578.00;;;;5089136;28;20190;-89
2021/12/03 00:48:04;;;;;;;6.67;5.77;;;5.80;79.40;5.60;95589.00;;;;5086021;28;20223;-89
2021/12/03 00:50:36;;;;;;;5.60;5.10;;;5.70;80.10;5.60;95593.00;;;;5076027;28;20183;-89
2021/12/03 00:53:16;;;;;;;6.83;5.43;;;5.70;79.50;5.50;95607.00;;;;5075733;28;20188;-89
2021/12/03 00:55:48;;;;;;;5.40;4.90;;;5.70;79.60;5.50;95612.00;;;;5075559;28;20203;-89
2021/12/03 00:58:18;;;;;;;5.83;5.23;;;5.70;79.70;5.50;95612.00;;;;5075854;28;20310;-90
2021/12/03 01:01:07;;;;;;;7.10;5.17;;;5.70;80.00;5.50;95626.00;;;;5075722;28;20223;-89
2021/12/03 01:03:49;;;;;;;5.60;4.67;;;5.60;80.00;5.60;95632.00;;;;5076847;28;20208;-89
2021/12/03 01:06:17;;;;;;;7.40;5.10;;;5.60;80.20;5.60;95639.00;;;;5076680;28;20212;-89
2021/12/03 01:08:46;;;;;;;6.93;5.63;;;5.70;80.50;5.60;95644.00;;;;5075911;28;20696;-89
2021/12/03 01:11:15;;;;;;;5.77;5.20;;;7.00;81.50;5.60;95639.00;;;;5081965;28;20621;-89
2021/12/03 01:13:47;;;;;;;6.30;5.07;;;5.70;80.90;5.70;95646.00;;;;5096296;22;20215;-86
2021/12/03 01:16:17;;;;;;;6.40;5.00;;;5.70;80.80;5.70;95650.00;;;;5088899;28;20694;-86
2021/12/03 01:18:53;;;;;;;5.57;4.87;;;5.70;80.90;5.80;95657.00;;;;5078070;28;20298;-86
2021/12/03 01:21:24;;;;;;;7.17;5.63;;;5.80;80.80;5.80;95665.00;;;;5060879;28;20200;-86
2021/12/03 01:24:00;;;;;;;6.97;5.17;;;5.80;80.80;5.80;95673.00;;;;5073892;28;20204;-87
2021/12/03 01:26:31;;;;;;;7.60;4.90;;;5.80;80.90;5.90;95675.00;;;;5069003;28;20222;-87
2021/12/03 01:29:03;;;;;;;7.07;5.27;;;5.90;81.10;5.90;95685.00;;;;5071516;28;20223;-87
2021/12/03 01:31:42;;;;;;;5.60;5.10;;;5.90;80.90;6.00;95695.00;;;;5072616;28;20724;-86
2021/12/03 01:34:12;;;;;;;5.63;5.03;;;5.90;80.80;6.00;95708.00;;;;5066308;28;20279;-86
2021/12/03 01:36:59;;;;;;;6.77;5.33;;;6.00;80.80;6.00;95708.00;;;;5069266;28;20637;-87
2021/12/03 01:39:33;;;;;;;6.73;6.00;;;6.00;81.00;6.10;95718.00;;;;5077023;28;20234;-86
2021/12/03 01:42:17;;;;;;;9.27;5.60;;;6.00;81.10;6.10;95711.00;;;;5070211;28;20236;-86
2021/12/03 01:45:01;;;;;;;6.67;5.87;;;6.00;81.20;6.10;95714.00;;;;5057088;28;20641;-86
2021/12/03 01:47:28;;;;;;;6.03;5.30;;;6.10;81.00;6.10;95703.00;;;;5078517;28;20313;-86
2021/12/03 01:50:08;;;;;;;5.77;5.10;;;6.10;80.90;6.20;95705.00;;;;5076067;28;20279;-87
2021/12/03 01:52:40;;;;;;;8.00;5.37;;;6.10;81.00;6.20;95706.00;;;;5076338;28;20192;-86
2021/12/03 01:55:21;;;;;;;6.53;5.87;;;6.10;81.70;6.20;95697.00;;;;5076509;28;20203;-86
2021/12/03 01:57:56;;;;;;;7.20;5.67;;;6.20;80.80;6.20;95701.00;;;;5079225;28;20216;-87
2021/12/03 02:00:45;;;;;;;6.43;5.50;;;6.20;80.80;6.30;95695.00;;;;5073615;28;20199;-85
2021/12/03 02:03:25;;;;;;;8.13;5.70;;;6.20;80.80;6.30;95688.00;;;;5057355;28;20208;-86
2021/12/03 02:05:59;;;;;;;7.40;5.90;;;6.30;80.80;6.30;95699.00;;;;5063794;28;20265;-86
2021/12/03 02:08:35;;;;;;;8.07;5.33;;;6.30;80.80;6.30;95704.00;;;;5078381;28;20195;-86
2021/12/03 02:11:08;;;;;;;7.57;5.30;;;6.30;80.60;6.40;95702.00;;;;5077906;28;20222;-86
2021/12/03 02:13:55;;;;;;;6.57;5.33;;;6.30;80.30;6.40;95703.00;;;;5061494;28;20204;-86
2021/12/03 02:19:44;;;;;;;5.93;5.17;;;6.30;80.30;6.40;95705.00;;;;5068694;28;20299;-86
2021/12/03 02:22:24;;;;;;;6.13;5.33;;;6.30;80.50;6.40;95704.00;;;;5073361;28;20196;-86
2021/12/03 02:24:58;;;;;;;7.37;5.70;;;6.30;80.10;6.40;95707.00;;;;5076226;28;20259;-86
2021/12/03 02:27:33;;;;;;;6.57;5.87;;;6.30;79.90;6.40;95718.00;;;;5075876;28;20216;-86
2021/12/03 02:30:11;;;;;;;7.17;5.53;;;6.30;80.00;6.40;95722.00;;;;5070644;28;20297;-86
2021/12/03 02:32:41;;;;;;;6.27;5.27;;;6.30;80.10;6.40;95727.00;;;;5075614;28;20258;-86
2021/12/03 02:35:30;;;;;;;8.30;6.00;;;6.30;80.10;6.40;95720.00;;;;5064356;28;20200;-86
2021/12/03 02:37:59;;;;;;;7.90;6.40;;;6.30;80.00;6.40;95720.00;;;;5058259;28;20279;-86
2021/12/03 02:40:37;;;;;;;6.30;5.57;;;6.30;80.20;6.40;95728.00;;;;5082220;28;20205;-86
2021/12/03 02:43:09;;;;;;;10.00;5.87;;;6.30;80.20;6.30;95734.00;;;;5076670;28;20203;-86
2021/12/03 02:45:44;;;;;;;6.43;5.73;;;6.30;80.10;6.30;95728.00;;;;5076191;28;20649;-86
2021/12/03 02:48:21;;;;;;;6.87;5.87;;;6.30;79.90;6.30;95734.00;;;;5065071;28;20674;-86
2021/12/03 02:50:52;;;;;;;7.80;6.43;;;6.30;79.80;6.20;95726.00;;;;5072622;28;20282;-86
2021/12/03 02:53:25;;;;;;;6.57;5.63;;;6.20;79.80;6.20;95741.00;;;;5054383;28;20283;-86
2021/12/03 02:55:58;;;;;;;8.50;5.93;;;6.20;79.70;6.20;95745.00;;;;5055284;28;20224;-86
2021/12/03 02:58:35;;;;;;;7.37;5.23;;;6.20;79.90;6.10;95738.00;;;;5072387;28;20224;-85
2021/12/03 03:01:05;;;;;;;7.57;5.93;;;6.20;79.80;6.10;95745.00;;;;5070841;28;20566;-86
2021/12/03 03:03:44;;;;;;;7.03;6.20;;;6.20;79.80;6.10;95754.00;;;;5055240;28;20848;-86
2021/12/03 03:06:13;;;;;;;8.43;5.90;;;6.20;79.50;6.00;95768.00;;;;5055748;28;20684;-86
2021/12/03 03:08:45;;;;;;;6.80;5.87;;;6.20;79.80;6.10;95760.00;;;;5074812;28;20208;-85
2021/12/03 03:11:12;;;;;;;8.80;6.37;;;6.20;79.90;6.10;95759.00;;;;5082815;28;20544;-86
2021/12/03 03:13:44;;;;;;;8.33;5.80;;;6.10;80.00;6.10;95767.00;;;;5061473;28;20284;-86
2021/12/03 03:16:17;;;;;;;7.17;5.70;;;6.10;80.20;6.10;95770.00;;;;5055657;28;20224;-86
2021/12/03 03:18:45;;;;;;;6.87;5.73;;;6.20;80.40;6.20;95771.00;;;;5072084;28;20216;-85
2021/12/03 03:21:16;;;;;;;7.27;6.10;;;6.20;80.50;6.20;95763.00;;;;5092891;28;20223;-86
2021/12/03 03:23:50;;;;;;;7.03;6.17;;;6.20;80.60;6.20;95771.00;;;;5074996;28;20251;-86
2021/12/03 03:26:21;;;;;;;6.60;5.93;;;6.20;80.70;6.20;95772.00;;;;5075147;28;20691;-86
2021/12/03 03:28:55;;;;;;;8.87;6.20;;;6.20;80.70;6.20;95777.00;;;;5073005;28;20200;-85
2021/12/03 03:31:27;;;;;;;7.73;6.30;;;6.20;80.50;6.20;95776.00;;;;5088910;28;20230;-86
2021/12/03 03:34:01;;;;;;;8.67;6.30;;;6.20;80.60;6.20;95773.00;;;;5066442;28;20632;-86
2021/12/03 03:36:37;;;;;;;7.30;6.27;;;6.20;80.60;6.20;95787.00;;;;5054578;28;20308;-86
2021/12/03 03:39:20;;;;;;;10.70;6.23;;;6.20;80.70;6.30;95780.00;;;;5071628;28;20220;-85
2021/12/03 03:41:55;;;;;;;6.13;5.00;;;6.30;80.80;6.20;95784.00;;;;5065551;28;20200;-86
2021/12/03 03:44:23;;;;;;;5.90;5.00;;;6.20;80.70;6.20;95782.00;;;;5062472;28;20192;-86
2021/12/03 03:46:53;;;;;;;5.80;4.83;;;6.20;80.50;6.20;95787.00;;;;5059393;28;20231;-86
2021/12/03 03:49:28;;;;;;;6.47;5.33;;;6.20;80.50;6.20;95792.00;;;;5074694;28;20728;-86
2021/12/03 03:51:57;;;;;;;7.87;5.27;;;6.20;80.70;6.10;95794.00;;;;5069807;28;20196;-86
2021/12/03 03:54:31;;;;;;;5.47;4.97;;;6.10;80.80;6.10;95796.00;;;;5053904;28;20201;-87
2021/12/03 03:57:07;;;;;;;6.47;5.73;;;6.10;80.90;6.10;95789.00;;;;5066988;28;20303;-86
2021/12/03 03:59:44;;;;;;;7.63;5.17;;;6.10;80.90;6.10;95800.00;;;;5073863;28;20302;-86
2021/12/03 04:02:22;;;;;;;5.90;5.33;;;6.10;81.10;6.00;95804.00;;;;5074189;28;20199;-86
2021/12/03 04:04:52;;;;;;;6.77;5.53;;;6.10;81.30;6.00;95806.00;;;;5076116;28;20659;-86
2021/12/03 04:07:25;;;;;;;5.50;5.10;;;6.10;81.40;6.00;95796.00;;;;5069445;28;20212;-86
2021/12/03 04:09:56;;;;;;;6.27;5.17;;;6.00;81.50;6.00;95794.00;;;;5085905;28;20234;-86
2021/12/03 04:12:23;;;;;;;6.43;5.13;;;6.00;81.50;6.00;95800.00;;;;5071468;28;20196;-86
2021/12/03 04:14:53;;;;;;;5.23;4.73;;;6.00;81.70;6.00;95799.00;;;;5075082;28;20235;-86
2021/12/03 04:17:35;;;;;;;5.60;5.10;;;6.00;81.80;6.00;95810.00;;;;5070051;28;20220;-86
2021/12/03 04:20:18;;;;;;;5.57;5.07;;;6.00;81.90;6.00;95816.00;;;;5075112;28;20215;-86
2021/12/03 04:22:53;;;;;;;6.93;5.10;;;6.00;82.00;6.10;95812.00;;;;5075350;28;20195;-86
2021/12/03 04:25:31;;;;;;;5.40;4.87;;;6.00;82.00;6.10;95816.00;;;;5073841;28;20202;-86
2021/12/03 04:28:03;;;;;;;6.87;5.57;;;6.10;82.90;6.10;95817.00;;;;5075625;28;20200;-86
2021/12/03 04:30:34;;;;;;;7.80;5.83;;;6.10;82.00;6.10;95813.00;;;;5069974;28;20196;-86
2021/12/03 04:33:03;;;;;;;6.47;5.53;;;6.10;82.00;6.10;95816.00;;;;5060115;28;20200;-86
2021/12/03 04:35:31;;;;;;;6.00;5.40;;;6.10;81.70;6.10;95813.00;;;;5064730;28;20220;-86
2021/12/03 04:37:59;;;;;;;6.80;5.57;;;6.10;81.80;6.10;95818.00;;;;5075131;28;20200;-86
2021/12/03 04:40:30;;;;;;;5.83;5.27;;;6.10;81.60;6.00;95811.00;;;;5070778;28;20220;-86
2021/12/03 04:42:57;;;;;;;6.30;5.70;;;6.00;81.40;6.10;95824.00;;;;5074568;28;20195;-86
2021/12/03 04:45:28;;;;;;;6.83;5.17;;;6.00;81.50;6.00;95826.00;;;;5065289;28;20230;-86
2021/12/03 04:47:57;;;;;;;7.03;5.63;;;6.00;81.60;6.00;95830.00;;;;5072930;28;20283;-86
2021/12/03 04:50:28;;;;;;;7.70;6.03;;;6.00;81.60;6.00;95839.00;;;;5074095;28;20223;-85
2021/12/03 04:52:56;;;;;;;7.37;5.27;;;6.00;81.70;6.00;95839.00;;;;5066590;28;20571;-85
2021/12/03 04:55:25;;;;;;;6.37;5.70;;;6.00;81.80;6.00;95848.00;;;;5074507;28;20210;-86
2021/12/03 04:57:54;;;;;;;7.13;5.63;;;6.00;81.60;5.90;95846.00;;;;5072305;28;20213;-86
2021/12/03 05:00:44;;;;;;;9.60;6.03;;;6.00;81.60;5.90;95848.00;;;;5073417;28;20225;-86
2021/12/03 05:03:14;;;;;;;8.60;5.70;;;6.00;82.30;5.90;95854.00;;;;5068812;28;20188;-86
2021/12/03 05:05:47;;;;;;;7.17;6.00;;;5.90;81.50;5.90;95862.00;;;;5066627;28;20197;-86
2021/12/03 05:08:15;;;;;;;6.43;5.73;;;5.90;81.50;5.90;95866.00;;;;5081735;28;20200;-86
2021/12/03 05:10:46;;;;;;;8.90;7.07;;;5.90;81.60;5.90;95870.00;;;;5074531;28;20211;-86
2021/12/03 05:13:26;;;;;;;8.23;6.70;;;5.90;81.70;5.90;95872.00;;;;5068535;28;20201;-87
2021/12/03 05:15:58;;;;;;;7.53;6.73;;;5.90;82.00;5.90;95879.00;;;;5064514;28;20265;-87
2021/12/03 05:18:28;;;;;;;9.23;6.30;;;5.90;81.90;6.00;95891.00;;;;5076941;28;20218;-87
2021/12/03 05:21:00;;;;;;;7.33;6.10;;;5.90;82.00;6.00;95892.00;;;;5076077;28;20726;-86
2021/12/03 05:23:31;;;;;;;6.93;6.23;;;5.90;81.80;6.00;95887.00;;;;5077026;28;20644;-87
2021/12/03 05:26:24;;;;;;;6.40;5.80;;;6.00;81.90;6.00;95895.00;;;;5080913;28;20276;-85
2021/12/03 05:28:53;;;;;;;11.00;6.40;;;6.00;81.80;6.00;95903.00;;;;5069619;28;20201;-86
2021/12/03 05:31:26;;;;;;;8.47;6.07;;;6.00;81.90;6.00;95914.00;;;;5078520;28;20204;-85
2021/12/03 05:33:54;;;;;;;6.43;5.77;;;6.00;81.90;6.00;95914.00;;;;5073685;28;20208;-87
2021/12/03 05:36:29;;;;;;;6.77;5.93;;;6.00;81.70;6.00;95907.00;;;;5080364;28;20298;-86
2021/12/03 05:38:59;;;;;;;8.20;6.33;;;6.00;81.60;6.00;95915.00;;;;5076592;28;20230;-86
2021/12/03 05:41:35;;;;;;;6.63;5.90;;;6.00;81.70;6.00;95920.00;;;;5076336;28;20203;-86
2021/12/03 05:44:06;;;;;;;7.43;6.00;;;6.00;81.80;6.10;95926.00;;;;5078322;28;20230;-86
2021/12/03 05:46:40;;;;;;;6.93;6.27;;;6.00;81.80;6.10;95933.00;;;;5083920;28;20643;-88
2021/12/03 05:49:16;;;;;;;6.90;5.93;;;6.00;81.90;6.10;95935.00;;;;5077052;28;20195;-86
2021/12/03 05:54:39;;;;;;;6.03;5.43;;;6.00;81.80;6.00;95946.00;;;;5076455;28;20196;-86
2021/12/03 05:57:16;;;;;;;6.47;5.87;;;6.00;81.70;6.00;95943.00;;;;5080723;28;20211;-88
2021/12/03 05:59:49;;;;;;;6.87;6.17;;;6.00;81.80;6.00;95940.00;;;;5080935;28;20227;-85
2021/12/03 06:02:20;;;;;;;6.90;6.20;;;6.00;82.00;6.00;95955.00;;;;5078206;28;20284;-88
2021/12/03 06:04:48;;;;;;;8.63;6.23;;;6.00;81.90;6.00;95951.00;;;;5080721;28;20194;-85
2021/12/03 06:07:15;;;;;;;6.20;5.50;;;6.00;81.90;6.00;95952.00;;;;5081554;28;20582;-86
2021/12/03 06:09:45;;;;;;;7.30;5.80;;;6.00;81.70;6.00;95958.00;;;;5092928;28;20231;-86
2021/12/03 06:12:19;;;;;;;7.73;6.30;;;6.00;81.70;6.00;95977.00;;;;5075036;28;20242;-85
2021/12/03 06:14:48;;;;;;;7.00;5.77;;;5.90;81.70;6.00;95975.00;;;;5075105;28;20600;-86
2021/12/03 06:17:16;;;;;;;6.17;5.57;;;6.00;81.50;6.00;95977.00;;;;5068558;28;20243;-85
2021/12/03 06:19:46;;;;;;;7.40;6.33;;;5.90;81.50;6.00;95977.00;;;;5077479;28;20306;-86
2021/12/03 06:22:16;;;;;;;8.07;5.73;;;6.00;81.80;6.00;95980.00;;;;5069355;28;20196;-85
2021/12/03 06:24:44;;;;;;;7.63;5.80;;;6.00;81.80;6.00;95970.00;;;;5076476;28;20200;-86
2021/12/03 06:27:18;;;;;;;9.13;6.00;;;6.00;81.80;6.00;95983.00;;;;5080632;28;20226;-86
2021/12/03 06:29:49;;;;;;;8.77;6.73;;;6.00;81.70;5.90;95988.00;;;;5091032;28;20259;-87
2021/12/03 06:32:17;;;;;;;6.97;5.83;;;6.00;81.50;5.90;95996.00;;;;5075709;28;20230;-88
2021/12/03 06:34:57;;;;;;;7.80;6.30;;;5.90;81.50;5.90;95996.00;;;;5071531;28;20189;-87
2021/12/03 06:37:24;;;;;;;6.20;5.60;;;5.90;81.50;5.90;96000.00;;;;5072109;28;20235;-86
2021/12/03 06:39:57;;;;;;;5.63;5.13;;;6.00;81.70;5.90;96005.00;;;;5075787;28;20230;-86
2021/12/03 06:42:39;;;;;;;5.60;5.10;;;5.90;81.70;5.90;96013.00;;;;5057801;28;20286;-87
2021/12/03 06:45:17;;;;;;;6.67;5.90;;;6.00;81.70;5.90;96012.00;;;;5054651;28;20208;-85
2021/12/03 06:47:52;;;;;;;7.43;6.07;;;6.00;81.70;6.00;96009.00;;;;5064988;28;20212;-85
2021/12/03 06:50:21;;;;;;;6.43;5.67;;;6.00;81.50;5.90;96008.00;;;;5075756;28;20176;-85
2021/12/03 06:52:54;;;;;;;6.83;6.13;;;6.00;81.60;6.00;96010.00;;;;5056449;28;20318;-86
2021/12/03 06:55:36;;;;;;;6.83;5.80;;;6.00;81.70;6.00;96014.00;;;;5056801;28;20610;-86
2021/12/03 06:58:04;;;;;;;6.13;5.53;;;6.00;81.60;6.00;96020.00;;;;5067277;28;20195;-87
2021/12/03 07:00:36;;;;;;;7.00;6.00;;;6.00;81.60;6.00;96032.00;;;;5088285;28;20659;-88
2021/12/03 07:03:06;;;;;;;6.80;6.10;;;6.00;81.50;6.00;96032.00;;;;5075399;28;20226;-87
2021/12/03 07:05:33;;;;;;;8.40;6.40;;;6.00;81.40;6.00;96040.00;;;;5073691;28;20223;-86
2021/12/03 07:08:01;;;;;;;7.03;6.37;;;6.00;81.30;6.00;96039.00;;;;5076557;28;20218;-86
2021/12/03 07:10:29;;;;;;;7.57;6.70;;;6.00;81.20;6.00;96036.00;;;;5072632;28;20230;-86
2021/12/03 07:12:56;;;;;;;7.97;6.27;;;6.00;81.40;6.00;96047.00;;;;5056114;28;20196;-87
2021/12/03 07:15:23;;;;;;;8.07;6.77;;;6.00;81.50;6.00;96040.00;;;;5100494;22;20228;-82
2021/12/03 07:17:52;;;;;;;7.17;6.47;;;6.00;81.40;6.00;96046.00;;;;5079262;28;20223;-80
2021/12/03 07:20:21;;;;;;;6.90;6.10;;;6.00;81.30;6.00;96055.00;;;;5076820;28;20219;-81
2021/12/03 07:22:49;;;;;;;8.03;6.47;;;6.00;81.00;6.00;96060.00;;;;5068566;28;20196;-81
2021/12/03 07:25:17;;;;;;;8.10;6.87;;;6.00;81.10;6.00;96059.00;;;;5060788;28;20188;-81
2021/12/03 07:27:44;;;;;;;8.07;6.67;;;6.00;81.20;6.00;96070.00;;;;5073431;28;20199;-80
2021/12/03 07:30:14;;;;;;;7.27;6.50;;;6.00;81.20;6.00;96070.00;;;;5071128;28;20196;-81
2021/12/03 07:32:42;;;;;;;7.73;6.37;;;6.00;81.90;6.00;96068.00;;;;5069404;28;20697;-81
2021/12/03 07:35:12;;;;;;;7.30;6.60;;;6.00;81.30;6.00;96069.00;;;;5076628;28;20211;-81
2021/12/03 07:37:42;;;;;;;8.40;6.43;;;6.00;81.20;6.00;96073.00;;;;5080550;28;20188;-82
2021/12/03 07:40:12;;;;;;;6.70;6.00;;;6.00;81.20;6.00;96083.00;;;;5075816;28;20245;-81
2021/12/03 07:42:40;;;;;;;7.17;6.00;;;6.00;81.20;6.10;96087.00;;;;5066343;28;20201;-80
2021/12/03 07:45:10;;;;;;;7.23;5.97;;;6.00;81.40;6.10;96078.00;;;;5066569;28;20259;-81
2021/12/03 07:47:38;;;;;;;7.13;5.70;;;6.00;81.10;6.10;96080.00;;;;5068215;28;20215;-81
2021/12/03 07:50:08;;;;;;;7.13;6.40;;;6.00;81.00;6.10;96089.00;;;;5073736;28;20267;-80
2021/12/03 07:52:37;;;;;;;7.20;5.80;;;6.00;81.20;6.10;96085.00;;;;5066620;28;20303;-80
2021/12/03 07:55:07;;;;;;;6.83;6.13;;;6.00;81.20;6.10;96079.00;;;;5064402;28;20291;-81
2021/12/03 07:57:34;;;;;;;6.30;5.67;;;6.00;81.30;6.20;96088.00;;;;5065424;28;20662;-81
2021/12/03 08:00:01;;;;;;;6.43;5.83;;;6.10;81.80;6.20;96093.00;;;;5075501;28;20230;-81
2021/12/03 08:02:28;;;;;;;6.77;6.10;;;6.10;81.10;6.20;96096.00;;;;5066919;28;20220;-81
2021/12/03 08:04:55;;;;;;;7.00;6.30;;;6.10;80.90;6.20;96107.00;;;;5071065;28;20206;-81
2021/12/03 08:07:23;;;;;;;6.57;5.87;;;6.10;80.90;6.20;96112.00;;;;5070529;28;20202;-81
2021/12/03 08:09:51;;;;;;;6.77;5.77;;;6.10;81.10;6.30;96113.00;;;;5069751;28;20202;-81
2021/12/03 08:12:18;;;;;;;6.60;5.90;;;6.10;81.00;6.30;96113.00;;;;5072213;28;20215;-81
2021/12/03 08:14:46;;;;;;;6.97;5.87;;;6.20;80.90;6.30;96113.00;;;;5077360;28;20204;-81
2021/12/03 08:17:13;;;;;;;6.07;5.47;;;6.20;80.90;6.30;96116.00;;;;5072425;28;20207;-81
2021/12/03 08:19:40;;;;;;;6.67;5.93;;;6.20;81.10;6.30;96118.00;;;;5074890;28;20197;-82
2021/12/03 08:22:08;;;;;;;6.07;5.23;;;6.30;80.70;6.40;96122.00;;;;5069286;28;20443;-81
2021/12/03 08:24:35;;;;;;;6.10;5.50;;;6.30;80.50;6.40;96125.00;;;;5063940;28;20264;-82
2021/12/03 08:27:03;;;;;;;6.27;5.63;;;6.30;80.40;6.40;96128.00;;;;5068009;28;20214;-83
2021/12/03 08:29:30;;;;;;;6.20;5.53;;;6.40;80.50;6.50;96127.00;;;;5065219;28;20196;-83
2021/12/03 08:32:00;;;;;;;6.57;5.87;;;6.40;81.60;6.50;96133.00;;;;5064255;28;21891;-82
2021/12/03 08:34:27;;;;;;;5.90;5.30;;;6.40;80.70;6.50;96132.00;;;;5067231;28;20816;-82
2021/12/03 08:36:55;;;;;;;5.87;5.37;;;6.50;80.60;6.60;96137.00;;;;5065449;28;20188;-82
2021/12/03 08:39:22;;;;;;;6.77;5.93;;;6.50;80.70;6.60;96129.00;;;;5068965;28;20227;-82
2021/12/03 08:41:49;;;;;;;9.23;6.23;;;6.50;80.50;6.70;96138.00;;;;5062421;28;20240;-82
2021/12/03 08:44:17;;;;;;;7.37;6.67;;;6.50;80.20;6.70;96149.00;;;;5063747;28;20573;-82
2021/12/03 08:46:56;;;;;;;6.73;6.00;;;6.60;79.80;6.70;96143.00;;;;5070867;28;20188;-82
2021/12/03 08:49:29;;;;;;;7.00;6.20;;;6.60;79.50;6.60;96149.00;;;;5069237;28;20197;-82
2021/12/03 08:52:23;;;;;;;7.57;5.93;;;6.60;79.30;6.50;96154.00;;;;5078090;28;20246;-82
2021/12/03 08:54:51;;;;;;;6.93;6.23;;;6.60;79.20;6.50;96161.00;;;;5080251;28;20215;-82
2021/12/03 08:57:21;;;;;;;7.53;5.90;;;6.60;79.20;6.40;96156.00;;;;5066401;28;20224;-79
2021/12/03 08:59:53;;;;;;;6.30;5.70;;;6.50;78.80;6.40;96162.00;;;;5076492;28;20586;-82
2021/12/03 09:02:21;;;;;;;7.37;6.33;;;6.50;78.70;6.30;96162.00;;;;5071483;28;20224;-82
2021/12/03 09:04:49;;;;;;;7.47;6.70;;;6.40;78.80;6.30;96165.00;;;;5063932;28;20203;-82
2021/12/03 09:07:16;;;;;;;7.63;6.13;;;6.40;78.90;6.30;96170.00;;;;5076507;28;20216;-82
2021/12/03 09:09:44;;;;;;;7.20;6.10;;;6.30;78.90;6.20;96162.00;;;;5072418;28;20594;-82
2021/12/03 09:12:11;;;;;;;8.67;6.37;;;6.30;78.80;6.20;96169.00;;;;5076034;28;20692;-82
2021/12/03 09:14:41;;;;;;;7.00;5.90;;;6.30;79.40;6.20;96181.00;;;;5065358;28;20234;-82
2021/12/03 09:17:24;;;;;;;6.17;5.57;;;6.20;78.60;6.20;96170.00;;;;5067080;28;20323;-79
2021/12/03 09:19:57;;;;;;;6.83;5.73;;;6.20;78.70;6.20;96176.00;;;;5087816;28;20192;-79
2021/12/03 09:22:33;;;;;;;5.93;5.33;;;6.20;79.10;6.20;96168.00;;;;5079432;28;20236;-79
2021/12/03 09:25:00;;;;;;;6.40;5.70;;;6.20;79.20;6.20;96174.00;;;;5087991;28;20199;-83
2021/12/03 09:27:28;;;;;;;6.00;5.47;;;6.20;79.20;6.20;96175.00;;;;5077230;28;20185;-81
2021/12/03 09:29:56;;;;;;;6.67;5.73;;;6.30;80.00;6.30;96171.00;;;;5075930;28;20189;-82
2021/12/03 09:32:29;;;;;;;6.00;5.40;;;6.30;79.80;6.40;96178.00;;;;5070258;28;20213;-82
2021/12/03 09:34:56;;;;;;;8.13;5.50;;;6.40;80.00;6.40;96183.00;;;;5067585;28;20199;-81
2021/12/03 09:37:23;;;;;;;6.10;5.50;;;6.50;80.30;6.50;96178.00;;;;5081250;28;20563;-81
2021/12/03 09:39:51;;;;;;;6.67;5.67;;;6.50;80.00;6.60;96179.00;;;;5076915;28;20679;-81
2021/12/03 09:42:20;;;;;;;5.93;5.33;;;6.60;80.50;6.70;96172.00;;;;5080627;28;20223;-81
2021/12/03 09:44:50;;;;;;;6.70;5.17;;;6.80;81.00;6.80;96176.00;;;;5080216;28;20218;-81
2021/12/03 09:47:19;;;;;;;7.73;5.80;;;7.10;81.40;7.00;96178.00;;;;5077674;28;20286;-81
2021/12/03 09:49:53;;;;;;;5.63;5.00;;;7.40;81.20;7.10;96174.00;;;;5062367;28;20192;-81
2021/12/03 09:52:27;;;;;;;7.27;5.70;;;7.70;80.90;7.20;96185.00;;;;5067952;28;20302;-81
2021/12/03 09:54:58;;;;;;;6.30;5.57;;;8.10;80.80;7.40;96190.00;;;;5071920;28;20220;-81
2021/12/03 09:57:32;;;;;;;7.10;6.40;;;8.40;80.80;7.60;96188.00;;;;5070865;28;20195;-81
2021/12/03 10:00:16;;;;;;;8.47;6.10;;;8.80;80.50;7.80;96191.00;;;;5069844;28;20196;-81
2021/12/03 10:14:44;;;;;;;5.83;4.80;;;10.10;77.10;8.70;96169.00;;;;5071606;28;20215;-81
2021/12/03 10:17:42;;;;;;;5.13;4.43;;;10.30;76.50;8.80;96175.00;;;;5073216;28;20205;-81
2021/12/03 10:20:31;;;;;;;5.30;4.77;;;10.40;75.50;8.90;96175.00;;;;5073224;28;20196;-81
2021/12/03 10:24:12;;;;;;;5.90;5.30;;;10.60;75.80;9.00;96175.00;;;;5070716;28;20192;-80
2021/12/03 10:29:36;;;;;;;5.23;4.73;;;10.90;74.40;9.30;96161.00;;;;5070721;28;20192;-81
2021/12/03 10:35:31;;;;;;;4.67;4.33;;;10.80;72.30;9.30;96177.00;;;;5062660;28;20192;-80
2021/12/03 10:38:14;;;;;;;5.07;4.57;;;10.60;72.00;9.30;96164.00;;;;5075568;28;20203;-80
2021/12/03 10:49:01;;;;;;;5.13;4.33;;;9.70;71.60;8.90;96145.00;;;;5073785;28;20204;-81
2021/12/03 10:51:47;;;;;;;5.53;5.03;;;9.40;71.40;8.80;96152.00;;;;5070815;28;20225;-81
2021/12/03 10:54:31;;;;;;;5.43;4.70;;;9.20;72.00;8.70;96140.00;;;;5062876;28;20211;-81
2021/12/03 10:57:14;;;;;;;5.87;4.57;;;9.10;72.00;8.60;96144.00;;;;5064169;28;20192;-81
2021/12/03 11:17:22;;;;;;;4.97;4.47;;;8.20;73.40;8.00;96133.00;;;;5031568;28;20199;-81
2021/12/03 11:31:19;;;;;;;6.73;4.57;;;7.70;73.20;7.50;96119.00;;;;5074752;22;20907;-88
2021/12/03 13:08:27;;;;;;;3.33;3.03;;;7.50;72.20;7.50;96091.00;;;;5076077;28;20254;-87
2021/12/03 13:14:01;;;;;;;5.07;3.00;;;7.90;72.20;7.60;96091.00;;;;5055043;28;20220;-88
2021/12/03 14:05:31;;;;;;;3.43;3.13;;;7.80;70.80;7.80;96075.00;;;;5028601;28;20267;-84
2021/12/03 14:37:54;;;;;;;3.63;3.33;;;7.30;70.60;7.20;96052.00;;;;5011144;28;20221;-85
2021/12/03 14:40:39;;;;;;;3.20;3.00;;;7.30;70.80;7.10;96061.00;;;;5002658;28;20202;-85
2021/12/03 14:43:25;;;;;;;3.70;3.00;;;7.20;71.10;7.10;96059.00;;;;5012161;28;20257;-85
2021/12/03 14:46:22;;;;;;;7.20;4.20;;;7.20;70.90;7.10;96063.00;;;;5006193;28;20217;-85
2021/12/03 14:49:25;;;;;;;3.20;2.90;;;7.10;70.40;7.00;96063.00;;;;5012786;28;20194;-83
2021/12/03 14:52:00;;;;;;;4.87;3.40;;;7.10;70.60;7.00;96069.00;;;;5000771;28;20547;-85
2021/12/03 14:54:46;;;;;;;3.80;3.40;;;7.10;71.10;7.00;96077.00;;;;5013559;28;20202;-85
2021/12/03 14:57:28;;;;;;;2.87;2.67;;;7.00;70.90;6.90;96073.00;;;;5006709;28;20278;-85
2021/12/03 15:00:09;;;;;;;2.97;2.70;;;7.00;71.00;6.90;96071.00;;;;5011300;28;20330;-86
2021/12/03 15:05:53;;;;;;;3.97;3.57;;;6.90;71.10;6.80;96062.00;;;;5005915;28;20682;-84
2021/12/03 15:08:24;;;;;;;4.90;4.20;;;6.80;71.50;6.70;96069.00;;;;5012698;28;20727;-85
2021/12/03 15:22:00;;;;;;;4.50;4.10;;;6.60;71.40;6.50;96064.00;;;;5029609;28;20228;-86
2021/12/03 15:30:12;;;;;;;4.17;3.77;;;6.50;72.10;6.50;96057.00;;;;5013921;28;20343;-85
2021/12/03 15:32:44;;;;;;;4.90;3.70;;;6.40;72.60;6.50;96059.00;;;;5010848;28;20251;-87
2021/12/03 15:35:14;;;;;;;4.97;4.20;;;6.50;71.90;6.50;96058.00;;;;5013890;28;20246;-86
2021/12/03 15:41:05;;;;;;;4.53;3.77;;;6.40;71.90;6.40;96050.00;;;;4973014;28;20277;-87
2021/12/03 16:06:15;;;;;;;4.20;3.83;;;6.20;72.20;6.10;96046.00;;;;5005000;28;20314;-86
2021/12/03 16:08:44;;;;;;;4.37;3.97;;;6.10;72.10;6.10;96041.00;;;;5038712;28;20195;-85
2021/12/03 16:11:22;;;;;;;6.07;4.53;;;6.10;72.00;6.00;96030.00;;;;5054736;28;20613;-85
2021/12/03 16:14:00;;;;;;;5.03;4.57;;;6.10;72.10;5.90;96028.00;;;;5009497;28;20684;-85
2021/12/03 16:17:02;;;;;;;7.67;5.30;;;6.00;72.00;5.90;96040.00;;;;5047208;28;20269;-86
2021/12/03 16:25:18;;;;;;;4.33;3.93;;;5.90;72.20;5.80;96027.00;;;;5050011;28;20226;-85
2021/12/03 16:47:17;;;;;;;46.13;24.83;;;5.70;72.50;5.60;96028.00;;;;5030466;28;20214;-85